sensor_id;sensor_type;location;lat;lon;timestamp;P1;durP1;ratioP1;P2;durP2;ratioP2
84050;SDS011;74137;50.136;19.040;2024-01-30T00:01:16;71.20;;;44.80;;
84050;SDS011;74137;50.136;19.040;2024-01-30T00:03:48;72.70;;;41.20;;
84050;SDS011;74137;50.136;19.040;2024-01-30T00:06:18;86.80;;;46.90;;
84050;SDS011;74137;50.136;19.040;2024-01-30T00:08:48;79.40;;;44.80;;
84050;SDS011;74137;50.136;19.040;2024-01-30T00:11:21;74.70;;;42.60;;
84050;SDS011;74137;50.136;19.040;2024-01-30T00:13:49;85.30;;;45.30;;
84050;SDS011;74137;50.136;19.040;2024-01-30T00:16:21;81.50;;;47.00;;
84050;SDS011;74137;50.136;19.040;2024-01-30T00:18:52;80.50;;;46.20;;
84050;SDS011;74137;50.136;19.040;2024-01-30T00:23:49;68.80;;;37.90;;
84050;SDS011;74137;50.136;19.040;2024-01-30T00:26:18;63.60;;;36.60;;
84050;SDS011;74137;50.136;19.040;2024-01-30T00:28:46;73.80;;;40.60;;
84050;SDS011;74137;50.136;19.040;2024-01-30T00:31:14;69.60;;;39.40;;
84050;SDS011;74137;50.136;19.040;2024-01-30T00:33:43;70.90;;;37.90;;
84050;SDS011;74137;50.136;19.040;2024-01-30T00:36:11;64.20;;;37.40;;
84050;SDS011;74137;50.136;19.040;2024-01-30T00:38:41;70.20;;;40.30;;
84050;SDS011;74137;50.136;19.040;2024-01-30T00:41:10;76.50;;;41.70;;
84050;SDS011;74137;50.136;19.040;2024-01-30T00:43:38;67.90;;;37.80;;
84050;SDS011;74137;50.136;19.040;2024-01-30T00:46:11;65.60;;;36.50;;
84050;SDS011;74137;50.136;19.040;2024-01-30T00:48:42;71.60;;;39.70;;
84050;SDS011;74137;50.136;19.040;2024-01-30T00:51:12;70.50;;;38.50;;
84050;SDS011;74137;50.136;19.040;2024-01-30T00:53:43;70.80;;;41.60;;
84050;SDS011;74137;50.136;19.040;2024-01-30T00:56:11;76.10;;;42.80;;
84050;SDS011;74137;50.136;19.040;2024-01-30T00:58:39;85.60;;;47.00;;
84050;SDS011;74137;50.136;19.040;2024-01-30T01:01:10;77.80;;;43.60;;
84050;SDS011;74137;50.136;19.040;2024-01-30T01:03:39;69.40;;;39.80;;
84050;SDS011;74137;50.136;19.040;2024-01-30T01:06:11;76.20;;;43.00;;
84050;SDS011;74137;50.136;19.040;2024-01-30T01:08:39;87.10;;;48.20;;
84050;SDS011;74137;50.136;19.040;2024-01-30T01:11:07;73.20;;;41.20;;
84050;SDS011;74137;50.136;19.040;2024-01-30T01:13:36;74.60;;;44.40;;
84050;SDS011;74137;50.136;19.040;2024-01-30T01:16:09;76.30;;;44.20;;
84050;SDS011;74137;50.136;19.040;2024-01-30T01:18:37;82.90;;;45.90;;
84050;SDS011;74137;50.136;19.040;2024-01-30T01:21:10;80.30;;;46.20;;
84050;SDS011;74137;50.136;19.040;2024-01-30T01:23:39;77.00;;;42.90;;
84050;SDS011;74137;50.136;19.040;2024-01-30T01:26:09;87.30;;;45.20;;
84050;SDS011;74137;50.136;19.040;2024-01-30T01:28:39;77.60;;;46.50;;
84050;SDS011;74137;50.136;19.040;2024-01-30T01:31:08;83.20;;;46.10;;
84050;SDS011;74137;50.136;19.040;2024-01-30T01:33:37;80.40;;;45.20;;
84050;SDS011;74137;50.136;19.040;2024-01-30T01:36:05;69.30;;;38.00;;
84050;SDS011;74137;50.136;19.040;2024-01-30T01:38:36;74.40;;;41.30;;
84050;SDS011;74137;50.136;19.040;2024-01-30T01:41:04;78.40;;;45.10;;
84050;SDS011;74137;50.136;19.040;2024-01-30T01:43:33;79.70;;;44.20;;
84050;SDS011;74137;50.136;19.040;2024-01-30T01:46:01;66.20;;;37.60;;
84050;SDS011;74137;50.136;19.040;2024-01-30T01:48:30;69.50;;;38.80;;
84050;SDS011;74137;50.136;19.040;2024-01-30T01:50:58;66.30;;;35.30;;
84050;SDS011;74137;50.136;19.040;2024-01-30T01:53:27;72.50;;;39.40;;
84050;SDS011;74137;50.136;19.040;2024-01-30T01:55:56;66.70;;;39.50;;
84050;SDS011;74137;50.136;19.040;2024-01-30T01:58:24;69.10;;;38.50;;
84050;SDS011;74137;50.136;19.040;2024-01-30T02:00:56;68.60;;;37.20;;
84050;SDS011;74137;50.136;19.040;2024-01-30T02:03:26;64.00;;;35.80;;
84050;SDS011;74137;50.136;19.040;2024-01-30T02:06:00;58.30;;;36.10;;
84050;SDS011;74137;50.136;19.040;2024-01-30T02:08:30;63.10;;;33.90;;
84050;SDS011;74137;50.136;19.040;2024-01-30T02:10:58;62.80;;;34.30;;
84050;SDS011;74137;50.136;19.040;2024-01-30T02:13:27;80.30;;;44.30;;
84050;SDS011;74137;50.136;19.040;2024-01-30T02:15:56;81.90;;;47.60;;
84050;SDS011;74137;50.136;19.040;2024-01-30T02:18:26;78.30;;;45.40;;
84050;SDS011;74137;50.136;19.040;2024-01-30T02:20:56;96.90;;;53.70;;
84050;SDS011;74137;50.136;19.040;2024-01-30T02:23:26;97.10;;;53.70;;
84050;SDS011;74137;50.136;19.040;2024-01-30T02:25:55;84.00;;;46.40;;
84050;SDS011;74137;50.136;19.040;2024-01-30T02:28:25;72.20;;;44.00;;
84050;SDS011;74137;50.136;19.040;2024-01-30T02:30:57;80.90;;;46.70;;
84050;SDS011;74137;50.136;19.040;2024-01-30T02:33:25;90.20;;;49.90;;
84050;SDS011;74137;50.136;19.040;2024-01-30T02:35:53;83.30;;;48.90;;
84050;SDS011;74137;50.136;19.040;2024-01-30T02:38:22;94.00;;;51.20;;
84050;SDS011;74137;50.136;19.040;2024-01-30T02:40:54;88.10;;;50.80;;
84050;SDS011;74137;50.136;19.040;2024-01-30T02:43:25;91.70;;;50.20;;
84050;SDS011;74137;50.136;19.040;2024-01-30T02:45:54;81.80;;;46.60;;
84050;SDS011;74137;50.136;19.040;2024-01-30T02:48:26;73.40;;;39.60;;
84050;SDS011;74137;50.136;19.040;2024-01-30T02:50:56;78.10;;;45.00;;
84050;SDS011;74137;50.136;19.040;2024-01-30T02:55:54;81.50;;;47.10;;
84050;SDS011;74137;50.136;19.040;2024-01-30T02:58:24;91.10;;;51.70;;
84050;SDS011;74137;50.136;19.040;2024-01-30T03:00:52;90.80;;;50.80;;
84050;SDS011;74137;50.136;19.040;2024-01-30T03:03:21;86.20;;;48.50;;
84050;SDS011;74137;50.136;19.040;2024-01-30T03:05:49;77.10;;;44.50;;
84050;SDS011;74137;50.136;19.040;2024-01-30T03:08:21;89.90;;;49.60;;
84050;SDS011;74137;50.136;19.040;2024-01-30T03:10:49;100.50;;;57.40;;
84050;SDS011;74137;50.136;19.040;2024-01-30T03:13:17;95.70;;;53.80;;
84050;SDS011;74137;50.136;19.040;2024-01-30T03:15:45;104.80;;;57.20;;
84050;SDS011;74137;50.136;19.040;2024-01-30T03:18:14;100.20;;;55.60;;
84050;SDS011;74137;50.136;19.040;2024-01-30T03:20:42;95.40;;;50.70;;
84050;SDS011;74137;50.136;19.040;2024-01-30T03:23:10;87.10;;;48.40;;
84050;SDS011;74137;50.136;19.040;2024-01-30T03:25:38;80.20;;;45.10;;
84050;SDS011;74137;50.136;19.040;2024-01-30T03:28:09;90.50;;;50.30;;
84050;SDS011;74137;50.136;19.040;2024-01-30T03:30:37;89.10;;;50.90;;
84050;SDS011;74137;50.136;19.040;2024-01-30T03:33:05;90.70;;;48.60;;
84050;SDS011;74137;50.136;19.040;2024-01-30T03:35:36;81.90;;;47.40;;
84050;SDS011;74137;50.136;19.040;2024-01-30T03:38:14;91.60;;;48.70;;
84050;SDS011;74137;50.136;19.040;2024-01-30T03:40:42;92.80;;;49.70;;
84050;SDS011;74137;50.136;19.040;2024-01-30T03:43:12;88.60;;;52.90;;
84050;SDS011;74137;50.136;19.040;2024-01-30T03:45:41;76.20;;;43.20;;
84050;SDS011;74137;50.136;19.040;2024-01-30T03:48:09;82.70;;;45.90;;
84050;SDS011;74137;50.136;19.040;2024-01-30T03:50:37;90.80;;;47.90;;
84050;SDS011;74137;50.136;19.040;2024-01-30T03:53:05;84.00;;;47.20;;
84050;SDS011;74137;50.136;19.040;2024-01-30T03:55:34;95.60;;;53.00;;
84050;SDS011;74137;50.136;19.040;2024-01-30T03:58:02;99.50;;;53.70;;
84050;SDS011;74137;50.136;19.040;2024-01-30T04:00:31;103.10;;;57.10;;
84050;SDS011;74137;50.136;19.040;2024-01-30T04:02:59;102.60;;;58.00;;
84050;SDS011;74137;50.136;19.040;2024-01-30T04:05:27;95.50;;;51.60;;
84050;SDS011;74137;50.136;19.040;2024-01-30T04:07:58;89.30;;;48.30;;
84050;SDS011;74137;50.136;19.040;2024-01-30T04:10:26;85.50;;;46.60;;
84050;SDS011;74137;50.136;19.040;2024-01-30T04:12:55;88.20;;;50.60;;
84050;SDS011;74137;50.136;19.040;2024-01-30T04:15:23;94.00;;;51.50;;
84050;SDS011;74137;50.136;19.040;2024-01-30T04:17:51;87.90;;;47.90;;
84050;SDS011;74137;50.136;19.040;2024-01-30T04:20:24;97.80;;;50.90;;
84050;SDS011;74137;50.136;19.040;2024-01-30T04:22:53;97.20;;;53.10;;
84050;SDS011;74137;50.136;19.040;2024-01-30T04:25:21;87.10;;;49.20;;
84050;SDS011;74137;50.136;19.040;2024-01-30T04:27:50;80.20;;;43.70;;
84050;SDS011;74137;50.136;19.040;2024-01-30T04:30:18;83.80;;;48.60;;
84050;SDS011;74137;50.136;19.040;2024-01-30T04:32:46;85.30;;;48.80;;
84050;SDS011;74137;50.136;19.040;2024-01-30T04:35:15;78.20;;;45.60;;
84050;SDS011;74137;50.136;19.040;2024-01-30T04:37:43;90.00;;;45.30;;
84050;SDS011;74137;50.136;19.040;2024-01-30T04:40:14;83.70;;;47.80;;
84050;SDS011;74137;50.136;19.040;2024-01-30T04:42:42;84.70;;;46.00;;
84050;SDS011;74137;50.136;19.040;2024-01-30T04:45:10;85.00;;;50.50;;
84050;SDS011;74137;50.136;19.040;2024-01-30T04:47:40;87.70;;;51.00;;
84050;SDS011;74137;50.136;19.040;2024-01-30T04:50:09;81.60;;;45.60;;
84050;SDS011;74137;50.136;19.040;2024-01-30T04:52:38;82.00;;;46.50;;
84050;SDS011;74137;50.136;19.040;2024-01-30T04:55:07;83.50;;;48.30;;
84050;SDS011;74137;50.136;19.040;2024-01-30T04:57:36;94.00;;;51.00;;
84050;SDS011;74137;50.136;19.040;2024-01-30T05:00:06;92.00;;;49.50;;
84050;SDS011;74137;50.136;19.040;2024-01-30T05:02:37;93.10;;;52.50;;
84050;SDS011;74137;50.136;19.040;2024-01-30T05:05:11;92.80;;;52.40;;
84050;SDS011;74137;50.136;19.040;2024-01-30T05:07:40;89.40;;;51.60;;
84050;SDS011;74137;50.136;19.040;2024-01-30T05:12:39;84.70;;;46.90;;
84050;SDS011;74137;50.136;19.040;2024-01-30T05:15:08;85.60;;;49.30;;
84050;SDS011;74137;50.136;19.040;2024-01-30T05:17:36;87.70;;;50.00;;
84050;SDS011;74137;50.136;19.040;2024-01-30T05:20:05;84.10;;;47.20;;
84050;SDS011;74137;50.136;19.040;2024-01-30T05:22:37;91.50;;;49.10;;
84050;SDS011;74137;50.136;19.040;2024-01-30T05:25:05;99.60;;;49.90;;
84050;SDS011;74137;50.136;19.040;2024-01-30T05:27:34;99.00;;;54.40;;
84050;SDS011;74137;50.136;19.040;2024-01-30T05:30:02;98.60;;;55.40;;
84050;SDS011;74137;50.136;19.040;2024-01-30T05:32:34;85.60;;;47.70;;
84050;SDS011;74137;50.136;19.040;2024-01-30T05:35:02;79.50;;;45.10;;
84050;SDS011;74137;50.136;19.040;2024-01-30T05:37:32;91.90;;;52.30;;
84050;SDS011;74137;50.136;19.040;2024-01-30T05:40:00;96.60;;;54.00;;
84050;SDS011;74137;50.136;19.040;2024-01-30T05:42:29;100.30;;;54.10;;
84050;SDS011;74137;50.136;19.040;2024-01-30T05:44:57;103.70;;;55.00;;
84050;SDS011;74137;50.136;19.040;2024-01-30T05:47:25;105.70;;;58.20;;
84050;SDS011;74137;50.136;19.040;2024-01-30T05:49:54;104.10;;;57.80;;
84050;SDS011;74137;50.136;19.040;2024-01-30T05:52:22;84.40;;;47.40;;
84050;SDS011;74137;50.136;19.040;2024-01-30T05:54:51;97.00;;;56.00;;
84050;SDS011;74137;50.136;19.040;2024-01-30T05:57:19;97.30;;;54.70;;
84050;SDS011;74137;50.136;19.040;2024-01-30T05:59:50;114.40;;;60.50;;
84050;SDS011;74137;50.136;19.040;2024-01-30T06:04:47;105.00;;;58.00;;
84050;SDS011;74137;50.136;19.040;2024-01-30T06:07:16;102.80;;;55.70;;
84050;SDS011;74137;50.136;19.040;2024-01-30T06:09:45;125.00;;;65.80;;
84050;SDS011;74137;50.136;19.040;2024-01-30T06:12:14;114.40;;;66.20;;
84050;SDS011;74137;50.136;19.040;2024-01-30T06:14:45;95.40;;;53.80;;
84050;SDS011;74137;50.136;19.040;2024-01-30T06:17:16;98.10;;;54.90;;
84050;SDS011;74137;50.136;19.040;2024-01-30T06:19:45;114.50;;;63.20;;
84050;SDS011;74137;50.136;19.040;2024-01-30T06:22:13;125.50;;;69.90;;
84050;SDS011;74137;50.136;19.040;2024-01-30T06:24:41;114.30;;;67.10;;
84050;SDS011;74137;50.136;19.040;2024-01-30T06:27:12;119.80;;;67.00;;
84050;SDS011;74137;50.136;19.040;2024-01-30T06:29:43;125.90;;;71.00;;
84050;SDS011;74137;50.136;19.040;2024-01-30T06:32:12;111.70;;;61.80;;
84050;SDS011;74137;50.136;19.040;2024-01-30T06:34:40;103.70;;;59.60;;
84050;SDS011;74137;50.136;19.040;2024-01-30T06:37:09;124.30;;;69.00;;
84050;SDS011;74137;50.136;19.040;2024-01-30T06:39:42;122.10;;;70.20;;
84050;SDS011;74137;50.136;19.040;2024-01-30T06:42:10;121.20;;;68.90;;
84050;SDS011;74137;50.136;19.040;2024-01-30T06:44:39;127.40;;;70.20;;
84050;SDS011;74137;50.136;19.040;2024-01-30T06:47:08;127.30;;;70.70;;
84050;SDS011;74137;50.136;19.040;2024-01-30T06:49:36;129.20;;;73.30;;
84050;SDS011;74137;50.136;19.040;2024-01-30T06:52:10;117.50;;;67.80;;
84050;SDS011;74137;50.136;19.040;2024-01-30T06:54:39;115.00;;;61.60;;
84050;SDS011;74137;50.136;19.040;2024-01-30T06:57:07;118.90;;;65.20;;
84050;SDS011;74137;50.136;19.040;2024-01-30T06:59:39;123.30;;;69.10;;
84050;SDS011;74137;50.136;19.040;2024-01-30T07:02:12;132.00;;;74.70;;
84050;SDS011;74137;50.136;19.040;2024-01-30T07:04:43;121.50;;;70.00;;
84050;SDS011;74137;50.136;19.040;2024-01-30T07:07:14;129.50;;;74.50;;
84050;SDS011;74137;50.136;19.040;2024-01-30T07:09:45;125.50;;;74.60;;
84050;SDS011;74137;50.136;19.040;2024-01-30T07:12:15;124.60;;;68.40;;
84050;SDS011;74137;50.136;19.040;2024-01-30T07:14:46;110.00;;;61.80;;
84050;SDS011;74137;50.136;19.040;2024-01-30T07:17:17;119.00;;;67.90;;
84050;SDS011;74137;50.136;19.040;2024-01-30T07:19:45;131.60;;;73.90;;
84050;SDS011;74137;50.136;19.040;2024-01-30T07:22:13;128.00;;;75.50;;
84050;SDS011;74137;50.136;19.040;2024-01-30T07:24:43;126.70;;;74.20;;
84050;SDS011;74137;50.136;19.040;2024-01-30T07:27:17;135.40;;;78.20;;
84050;SDS011;74137;50.136;19.040;2024-01-30T07:29:46;135.40;;;80.50;;
84050;SDS011;74137;50.136;19.040;2024-01-30T07:32:14;116.20;;;67.00;;
84050;SDS011;74137;50.136;19.040;2024-01-30T07:34:42;113.90;;;66.20;;
84050;SDS011;74137;50.136;19.040;2024-01-30T07:37:29;120.40;;;73.00;;
84050;SDS011;74137;50.136;19.040;2024-01-30T07:39:58;128.50;;;72.00;;
84050;SDS011;74137;50.136;19.040;2024-01-30T07:42:28;122.40;;;75.50;;
84050;SDS011;74137;50.136;19.040;2024-01-30T07:44:57;129.80;;;79.10;;
84050;SDS011;74137;50.136;19.040;2024-01-30T07:47:25;124.90;;;73.60;;
84050;SDS011;74137;50.136;19.040;2024-01-30T07:49:59;120.80;;;74.80;;
84050;SDS011;74137;50.136;19.040;2024-01-30T07:52:29;116.40;;;66.00;;
84050;SDS011;74137;50.136;19.040;2024-01-30T07:54:57;106.80;;;65.10;;
84050;SDS011;74137;50.136;19.040;2024-01-30T07:57:28;98.30;;;58.60;;
84050;SDS011;74137;50.136;19.040;2024-01-30T07:59:56;124.80;;;77.60;;
84050;SDS011;74137;50.136;19.040;2024-01-30T08:02:25;134.20;;;80.90;;
84050;SDS011;74137;50.136;19.040;2024-01-30T08:04:53;121.40;;;76.90;;
84050;SDS011;74137;50.136;19.040;2024-01-30T08:07:24;155.50;;;94.80;;
84050;SDS011;74137;50.136;19.040;2024-01-30T08:09:53;130.70;;;82.60;;
84050;SDS011;74137;50.136;19.040;2024-01-30T08:12:21;122.70;;;78.40;;
84050;SDS011;74137;50.136;19.040;2024-01-30T08:14:49;121.50;;;75.00;;
84050;SDS011;74137;50.136;19.040;2024-01-30T08:17:17;125.90;;;81.50;;
84050;SDS011;74137;50.136;19.040;2024-01-30T08:19:45;140.50;;;89.30;;
84050;SDS011;74137;50.136;19.040;2024-01-30T08:22:14;143.40;;;89.40;;
84050;SDS011;74137;50.136;19.040;2024-01-30T08:24:47;131.30;;;83.70;;
84050;SDS011;74137;50.136;19.040;2024-01-30T08:27:18;136.90;;;86.80;;
84050;SDS011;74137;50.136;19.040;2024-01-30T08:29:46;137.70;;;88.50;;
84050;SDS011;74137;50.136;19.040;2024-01-30T08:32:14;134.50;;;85.00;;
84050;SDS011;74137;50.136;19.040;2024-01-30T08:34:45;129.70;;;80.80;;
84050;SDS011;74137;50.136;19.040;2024-01-30T08:37:13;109.40;;;69.20;;
84050;SDS011;74137;50.136;19.040;2024-01-30T08:39:46;141.50;;;90.10;;
84050;SDS011;74137;50.136;19.040;2024-01-30T08:42:15;134.60;;;91.80;;
84050;SDS011;74137;50.136;19.040;2024-01-30T08:44:46;134.30;;;91.00;;
84050;SDS011;74137;50.136;19.040;2024-01-30T08:47:14;123.80;;;81.90;;
84050;SDS011;74137;50.136;19.040;2024-01-30T08:49:44;103.60;;;66.90;;
84050;SDS011;74137;50.136;19.040;2024-01-30T08:52:12;120.00;;;76.30;;
84050;SDS011;74137;50.136;19.040;2024-01-30T08:54:41;146.70;;;88.20;;
84050;SDS011;74137;50.136;19.040;2024-01-30T08:57:09;191.10;;;111.90;;
84050;SDS011;74137;50.136;19.040;2024-01-30T08:59:37;163.30;;;95.90;;
84050;SDS011;74137;50.136;19.040;2024-01-30T09:02:08;131.10;;;79.20;;
84050;SDS011;74137;50.136;19.040;2024-01-30T09:04:39;136.70;;;81.40;;
84050;SDS011;74137;50.136;19.040;2024-01-30T09:07:09;116.50;;;71.90;;
84050;SDS011;74137;50.136;19.040;2024-01-30T09:09:39;122.90;;;77.30;;
84050;SDS011;74137;50.136;19.040;2024-01-30T09:12:10;116.20;;;72.10;;
84050;SDS011;74137;50.136;19.040;2024-01-30T09:14:42;116.10;;;73.20;;
84050;SDS011;74137;50.136;19.040;2024-01-30T09:17:10;132.30;;;73.90;;
84050;SDS011;74137;50.136;19.040;2024-01-30T09:19:38;128.30;;;72.50;;
84050;SDS011;74137;50.136;19.040;2024-01-30T09:22:07;131.30;;;73.30;;
84050;SDS011;74137;50.136;19.040;2024-01-30T09:24:35;112.00;;;70.30;;
84050;SDS011;74137;50.136;19.040;2024-01-30T09:27:04;97.10;;;61.30;;
84050;SDS011;74137;50.136;19.040;2024-01-30T09:29:32;96.20;;;62.30;;
84050;SDS011;74137;50.136;19.040;2024-01-30T09:32:04;104.20;;;66.80;;
84050;SDS011;74137;50.136;19.040;2024-01-30T09:34:36;105.50;;;62.70;;
84050;SDS011;74137;50.136;19.040;2024-01-30T09:37:05;101.90;;;64.40;;
84050;SDS011;74137;50.136;19.040;2024-01-30T09:39:33;98.00;;;63.30;;
84050;SDS011;74137;50.136;19.040;2024-01-30T09:44:34;92.80;;;60.60;;
84050;SDS011;74137;50.136;19.040;2024-01-30T09:47:04;107.30;;;67.20;;
84050;SDS011;74137;50.136;19.040;2024-01-30T09:49:34;95.80;;;62.90;;
84050;SDS011;74137;50.136;19.040;2024-01-30T09:52:03;99.90;;;62.40;;
84050;SDS011;74137;50.136;19.040;2024-01-30T09:54:33;107.00;;;68.80;;
84050;SDS011;74137;50.136;19.040;2024-01-30T09:57:05;98.10;;;62.90;;
84050;SDS011;74137;50.136;19.040;2024-01-30T09:59:37;105.20;;;65.00;;
84050;SDS011;74137;50.136;19.040;2024-01-30T10:02:06;86.60;;;57.80;;
84050;SDS011;74137;50.136;19.040;2024-01-30T10:04:37;98.70;;;62.60;;
84050;SDS011;74137;50.136;19.040;2024-01-30T10:07:06;89.10;;;61.20;;
84050;SDS011;74137;50.136;19.040;2024-01-30T10:09:39;89.50;;;57.10;;
84050;SDS011;74137;50.136;19.040;2024-01-30T10:12:08;80.30;;;54.50;;
84050;SDS011;74137;50.136;19.040;2024-01-30T10:14:42;80.20;;;52.10;;
84050;SDS011;74137;50.136;19.040;2024-01-30T10:17:11;62.70;;;42.30;;
84050;SDS011;74137;50.136;19.040;2024-01-30T10:19:54;49.60;;;32.10;;
84050;SDS011;74137;50.136;19.040;2024-01-30T10:22:29;40.60;;;26.20;;
84050;SDS011;74137;50.136;19.040;2024-01-30T10:24:58;21.60;;;12.50;;
84050;SDS011;74137;50.136;19.040;2024-01-30T10:27:34;16.30;;;8.90;;
84050;SDS011;74137;50.136;19.040;2024-01-30T10:30:03;15.10;;;8.80;;
84050;SDS011;74137;50.136;19.040;2024-01-30T10:32:32;20.20;;;10.50;;
84050;SDS011;74137;50.136;19.040;2024-01-30T10:35:00;17.00;;;9.40;;
84050;SDS011;74137;50.136;19.040;2024-01-30T10:37:29;16.50;;;9.30;;
84050;SDS011;74137;50.136;19.040;2024-01-30T10:40:01;14.70;;;8.90;;
84050;SDS011;74137;50.136;19.040;2024-01-30T10:42:35;19.40;;;9.40;;
84050;SDS011;74137;50.136;19.040;2024-01-30T10:47:36;16.40;;;8.10;;
84050;SDS011;74137;50.136;19.040;2024-01-30T10:50:05;16.50;;;9.60;;
84050;SDS011;74137;50.136;19.040;2024-01-30T10:52:37;16.90;;;9.20;;
84050;SDS011;74137;50.136;19.040;2024-01-30T10:55:07;14.90;;;7.90;;
84050;SDS011;74137;50.136;19.040;2024-01-30T10:57:36;14.80;;;8.60;;
84050;SDS011;74137;50.136;19.040;2024-01-30T11:00:08;14.60;;;8.50;;
84050;SDS011;74137;50.136;19.040;2024-01-30T11:02:40;17.90;;;10.10;;
84050;SDS011;74137;50.136;19.040;2024-01-30T11:05:11;19.80;;;10.10;;
84050;SDS011;74137;50.136;19.040;2024-01-30T11:07:40;16.30;;;9.30;;
84050;SDS011;74137;50.136;19.040;2024-01-30T11:10:09;17.60;;;9.20;;
84050;SDS011;74137;50.136;19.040;2024-01-30T11:12:43;16.50;;;8.80;;
84050;SDS011;74137;50.136;19.040;2024-01-30T11:15:17;15.90;;;7.90;;
84050;SDS011;74137;50.136;19.040;2024-01-30T11:20:29;15.40;;;8.30;;
84050;SDS011;74137;50.136;19.040;2024-01-30T11:23:03;12.70;;;7.60;;
84050;SDS011;74137;50.136;19.040;2024-01-30T11:25:34;14.20;;;7.90;;
84050;SDS011;74137;50.136;19.040;2024-01-30T11:28:06;13.80;;;7.50;;
84050;SDS011;74137;50.136;19.040;2024-01-30T11:30:42;12.20;;;7.30;;
84050;SDS011;74137;50.136;19.040;2024-01-30T11:33:12;13.90;;;8.00;;
84050;SDS011;74137;50.136;19.040;2024-01-30T11:35:44;14.50;;;8.00;;
84050;SDS011;74137;50.136;19.040;2024-01-30T11:38:17;14.80;;;7.90;;
84050;SDS011;74137;50.136;19.040;2024-01-30T11:40:45;15.10;;;8.50;;
84050;SDS011;74137;50.136;19.040;2024-01-30T11:43:16;12.50;;;7.90;;
84050;SDS011;74137;50.136;19.040;2024-01-30T11:45:46;14.30;;;8.20;;
84050;SDS011;74137;50.136;19.040;2024-01-30T11:48:15;13.90;;;7.80;;
84050;SDS011;74137;50.136;19.040;2024-01-30T11:50:45;14.40;;;7.80;;
84050;SDS011;74137;50.136;19.040;2024-01-30T11:53:16;13.80;;;7.20;;
84050;SDS011;74137;50.136;19.040;2024-01-30T11:55:50;15.00;;;8.70;;
84050;SDS011;74137;50.136;19.040;2024-01-30T11:58:21;15.10;;;8.80;;
84050;SDS011;74137;50.136;19.040;2024-01-30T12:00:54;15.00;;;8.60;;
84050;SDS011;74137;50.136;19.040;2024-01-30T12:03:24;15.00;;;8.00;;
84050;SDS011;74137;50.136;19.040;2024-01-30T12:05:56;13.90;;;7.40;;
84050;SDS011;74137;50.136;19.040;2024-01-30T12:08:30;18.80;;;10.40;;
84050;SDS011;74137;50.136;19.040;2024-01-30T12:10:58;17.50;;;9.00;;
84050;SDS011;74137;50.136;19.040;2024-01-30T12:13:27;18.30;;;8.90;;
84050;SDS011;74137;50.136;19.040;2024-01-30T12:16:00;13.50;;;7.10;;
84050;SDS011;74137;50.136;19.040;2024-01-30T12:18:30;14.80;;;8.10;;
84050;SDS011;74137;50.136;19.040;2024-01-30T12:20:59;15.00;;;8.70;;
84050;SDS011;74137;50.136;19.040;2024-01-30T12:23:28;17.40;;;9.40;;
84050;SDS011;74137;50.136;19.040;2024-01-30T12:25:59;13.20;;;7.60;;
84050;SDS011;74137;50.136;19.040;2024-01-30T12:28:27;14.00;;;8.60;;
84050;SDS011;74137;50.136;19.040;2024-01-30T12:30:56;14.80;;;7.50;;
84050;SDS011;74137;50.136;19.040;2024-01-30T12:33:29;15.20;;;8.60;;
84050;SDS011;74137;50.136;19.040;2024-01-30T12:36:01;14.70;;;8.00;;
84050;SDS011;74137;50.136;19.040;2024-01-30T12:38:31;14.10;;;8.10;;
84050;SDS011;74137;50.136;19.040;2024-01-30T12:41:02;14.20;;;7.50;;
84050;SDS011;74137;50.136;19.040;2024-01-30T12:43:30;13.70;;;8.40;;
84050;SDS011;74137;50.136;19.040;2024-01-30T12:46:06;12.80;;;7.50;;
84050;SDS011;74137;50.136;19.040;2024-01-30T12:48:36;13.60;;;7.40;;
84050;SDS011;74137;50.136;19.040;2024-01-30T12:51:07;16.70;;;9.30;;
84050;SDS011;74137;50.136;19.040;2024-01-30T12:53:35;13.10;;;7.70;;
84050;SDS011;74137;50.136;19.040;2024-01-30T12:56:04;15.00;;;8.40;;
84050;SDS011;74137;50.136;19.040;2024-01-30T12:58:34;14.30;;;7.80;;
84050;SDS011;74137;50.136;19.040;2024-01-30T13:01:03;12.70;;;7.90;;
84050;SDS011;74137;50.136;19.040;2024-01-30T13:03:32;13.00;;;7.10;;
84050;SDS011;74137;50.136;19.040;2024-01-30T13:06:02;13.40;;;7.00;;
84050;SDS011;74137;50.136;19.040;2024-01-30T13:08:31;12.10;;;6.80;;
84050;SDS011;74137;50.136;19.040;2024-01-30T13:10:59;14.20;;;7.10;;
84050;SDS011;74137;50.136;19.040;2024-01-30T13:13:27;15.60;;;8.40;;
84050;SDS011;74137;50.136;19.040;2024-01-30T13:15:58;14.90;;;7.30;;
84050;SDS011;74137;50.136;19.040;2024-01-30T13:18:26;17.00;;;7.60;;
84050;SDS011;74137;50.136;19.040;2024-01-30T13:20:59;14.70;;;8.00;;
84050;SDS011;74137;50.136;19.040;2024-01-30T13:23:29;14.10;;;7.40;;
84050;SDS011;74137;50.136;19.040;2024-01-30T13:26:00;14.60;;;7.00;;
84050;SDS011;74137;50.136;19.040;2024-01-30T13:28:31;11.20;;;6.40;;
84050;SDS011;74137;50.136;19.040;2024-01-30T13:30:59;12.70;;;6.40;;
84050;SDS011;74137;50.136;19.040;2024-01-30T13:33:27;12.60;;;5.90;;
84050;SDS011;74137;50.136;19.040;2024-01-30T13:35:56;11.70;;;6.70;;
84050;SDS011;74137;50.136;19.040;2024-01-30T13:38:24;10.00;;;5.70;;
84050;SDS011;74137;50.136;19.040;2024-01-30T13:40:57;11.10;;;5.90;;
84050;SDS011;74137;50.136;19.040;2024-01-30T13:43:32;11.80;;;5.80;;
84050;SDS011;74137;50.136;19.040;2024-01-30T13:46:05;12.40;;;5.50;;
84050;SDS011;74137;50.136;19.040;2024-01-30T13:48:36;11.30;;;6.40;;
84050;SDS011;74137;50.136;19.040;2024-01-30T13:51:06;12.70;;;6.60;;
84050;SDS011;74137;50.136;19.040;2024-01-30T13:53:39;12.30;;;7.20;;
84050;SDS011;74137;50.136;19.040;2024-01-30T13:56:10;17.70;;;8.10;;
84050;SDS011;74137;50.136;19.040;2024-01-30T13:58:38;17.40;;;9.30;;
84050;SDS011;74137;50.136;19.040;2024-01-30T14:01:06;14.30;;;8.00;;
84050;SDS011;74137;50.136;19.040;2024-01-30T14:03:35;14.60;;;7.50;;
84050;SDS011;74137;50.136;19.040;2024-01-30T14:06:03;12.60;;;7.10;;
84050;SDS011;74137;50.136;19.040;2024-01-30T14:08:32;15.10;;;7.60;;
84050;SDS011;74137;50.136;19.040;2024-01-30T14:11:02;14.00;;;8.30;;
84050;SDS011;74137;50.136;19.040;2024-01-30T14:13:33;14.30;;;7.50;;
84050;SDS011;74137;50.136;19.040;2024-01-30T14:16:02;12.50;;;7.10;;
84050;SDS011;74137;50.136;19.040;2024-01-30T14:18:33;14.10;;;7.80;;
84050;SDS011;74137;50.136;19.040;2024-01-30T14:21:01;15.40;;;8.30;;
84050;SDS011;74137;50.136;19.040;2024-01-30T14:23:30;14.60;;;7.90;;
84050;SDS011;74137;50.136;19.040;2024-01-30T14:26:01;14.40;;;7.90;;
84050;SDS011;74137;50.136;19.040;2024-01-30T14:28:29;15.10;;;7.90;;
84050;SDS011;74137;50.136;19.040;2024-01-30T14:30:57;13.50;;;7.70;;
84050;SDS011;74137;50.136;19.040;2024-01-30T14:33:27;15.10;;;7.90;;
84050;SDS011;74137;50.136;19.040;2024-01-30T14:35:56;15.90;;;9.30;;
84050;SDS011;74137;50.136;19.040;2024-01-30T14:38:27;13.00;;;7.80;;
84050;SDS011;74137;50.136;19.040;2024-01-30T14:41:02;14.80;;;8.30;;